sensor_id;sensor_type;location;lat;lon;timestamp;temperature;humidity
66710;DHT22;53624;0.000;0.000;2022-10-17T00:00:47;20.20;99.90
66710;DHT22;53624;0.000;0.000;2022-10-17T00:03:14;20.20;99.90
66710;DHT22;53624;0.000;0.000;2022-10-17T00:05:43;20.20;99.90
66710;DHT22;53624;0.000;0.000;2022-10-17T00:08:11;20.20;99.90
66710;DHT22;53624;0.000;0.000;2022-10-17T00:10:39;20.20;99.90
66710;DHT22;53624;0.000;0.000;2022-10-17T00:13:07;20.10;99.90
66710;DHT22;53624;0.000;0.000;2022-10-17T00:15:36;20.10;99.90
66710;DHT22;53624;0.000;0.000;2022-10-17T00:18:03;20.10;99.90
66710;DHT22;53624;0.000;0.000;2022-10-17T00:20:33;20.20;99.90
66710;DHT22;53624;0.000;0.000;2022-10-17T00:23:01;20.10;99.90
66710;DHT22;53624;0.000;0.000;2022-10-17T00:25:28;20.10;99.90
66710;DHT22;53624;0.000;0.000;2022-10-17T00:27:56;20.10;99.90
66710;DHT22;53624;0.000;0.000;2022-10-17T00:30:23;20.10;99.90
66710;DHT22;53624;0.000;0.000;2022-10-17T00:32:52;20.10;99.90
66710;DHT22;53624;0.000;0.000;2022-10-17T00:35:19;20.10;99.90
66710;DHT22;53624;0.000;0.000;2022-10-17T00:37:47;20.10;99.90
66710;DHT22;53624;0.000;0.000;2022-10-17T00:40:16;20.10;99.90
66710;DHT22;53624;0.000;0.000;2022-10-17T00:42:46;20.00;99.90
66710;DHT22;53624;0.000;0.000;2022-10-17T00:45:18;20.00;99.90
66710;DHT22;53624;0.000;0.000;2022-10-17T00:47:47;20.00;99.90
66710;DHT22;53624;0.000;0.000;2022-10-17T00:50:17;20.10;99.90
66710;DHT22;53624;0.000;0.000;2022-10-17T00:52:45;20.00;99.90
66710;DHT22;53624;0.000;0.000;2022-10-17T00:55:13;20.00;99.90
66710;DHT22;53624;0.000;0.000;2022-10-17T00:57:42;20.00;99.90
66710;DHT22;53624;0.000;0.000;2022-10-17T01:00:12;20.00;99.90
66710;DHT22;53624;0.000;0.000;2022-10-17T01:02:40;20.00;99.90
66710;DHT22;53624;0.000;0.000;2022-10-17T01:05:08;20.00;99.90
66710;DHT22;53624;0.000;0.000;2022-10-17T01:07:37;20.00;99.90
66710;DHT22;53624;0.000;0.000;2022-10-17T01:10:06;20.00;99.90
66710;DHT22;53624;0.000;0.000;2022-10-17T01:12:37;19.90;99.90
66710;DHT22;53624;0.000;0.000;2022-10-17T01:15:08;20.00;99.90
66710;DHT22;53624;0.000;0.000;2022-10-17T01:17:39;19.90;99.90
66710;DHT22;53624;0.000;0.000;2022-10-17T01:23:02;19.90;99.90
66710;DHT22;53624;0.000;0.000;2022-10-17T01:25:33;19.90;99.90
66710;DHT22;53624;0.000;0.000;2022-10-17T01:30:59;19.90;99.90
66710;DHT22;53624;0.000;0.000;2022-10-17T01:36:17;19.90;99.90
66710;DHT22;53624;0.000;0.000;2022-10-17T01:38:48;19.90;99.90
66710;DHT22;53624;0.000;0.000;2022-10-17T01:41:20;19.90;99.90
66710;DHT22;53624;0.000;0.000;2022-10-17T01:43:51;19.90;99.90
66710;DHT22;53624;0.000;0.000;2022-10-17T01:46:22;19.80;99.90
66710;DHT22;53624;0.000;0.000;2022-10-17T01:48:51;19.80;99.90
66710;DHT22;53624;0.000;0.000;2022-10-17T01:51:19;19.80;99.90
66710;DHT22;53624;0.000;0.000;2022-10-17T01:53:49;19.80;99.90
66710;DHT22;53624;0.000;0.000;2022-10-17T01:56:17;19.80;99.90
66710;DHT22;53624;0.000;0.000;2022-10-17T01:58:48;19.80;99.90
66710;DHT22;53624;0.000;0.000;2022-10-17T02:01:17;19.80;99.90
66710;DHT22;53624;0.000;0.000;2022-10-17T02:03:46;19.80;99.90
66710;DHT22;53624;0.000;0.000;2022-10-17T02:06:14;19.80;99.90
66710;DHT22;53624;0.000;0.000;2022-10-17T02:08:43;19.80;99.90
66710;DHT22;53624;0.000;0.000;2022-10-17T02:11:12;19.80;99.90
66710;DHT22;53624;0.000;0.000;2022-10-17T02:13:44;19.80;99.90
66710;DHT22;53624;0.000;0.000;2022-10-17T02:16:19;19.80;99.90
66710;DHT22;53624;0.000;0.000;2022-10-17T02:18:56;19.70;99.90
66710;DHT22;53624;0.000;0.000;2022-10-17T02:21:30;19.70;99.90
66710;DHT22;53624;0.000;0.000;2022-10-17T02:24:02;19.70;99.90
66710;DHT22;53624;0.000;0.000;2022-10-17T02:26:33;19.70;99.90
66710;DHT22;53624;0.000;0.000;2022-10-17T02:29:02;19.70;99.90
66710;DHT22;53624;0.000;0.000;2022-10-17T02:31:32;19.70;99.90
66710;DHT22;53624;0.000;0.000;2022-10-17T02:34:04;19.70;99.90
66710;DHT22;53624;0.000;0.000;2022-10-17T02:36:33;19.70;99.90
66710;DHT22;53624;0.000;0.000;2022-10-17T02:39:02;19.70;99.90
66710;DHT22;53624;0.000;0.000;2022-10-17T02:41:31;19.70;99.90
66710;DHT22;53624;0.000;0.000;2022-10-17T02:43:59;19.70;99.90
66710;DHT22;53624;0.000;0.000;2022-10-17T02:46:28;19.70;99.90
66710;DHT22;53624;0.000;0.000;2022-10-17T02:48:57;19.70;99.90
66710;DHT22;53624;0.000;0.000;2022-10-17T02:51:31;19.70;99.90
66710;DHT22;53624;0.000;0.000;2022-10-17T02:54:01;19.70;99.90
66710;DHT22;53624;0.000;0.000;2022-10-17T02:56:32;19.70;99.90
66710;DHT22;53624;0.000;0.000;2022-10-17T02:59:02;19.70;99.90
66710;DHT22;53624;0.000;0.000;2022-10-17T03:01:31;19.60;99.90
66710;DHT22;53624;0.000;0.000;2022-10-17T03:04:06;19.60;99.90
66710;DHT22;53624;0.000;0.000;2022-10-17T03:06:34;19.60;99.90
66710;DHT22;53624;0.000;0.000;2022-10-17T03:09:02;19.60;99.90
66710;DHT22;53624;0.000;0.000;2022-10-17T03:11:30;19.60;99.90
66710;DHT22;53624;0.000;0.000;2022-10-17T03:13:57;19.60;99.90
66710;DHT22;53624;0.000;0.000;2022-10-17T03:16:26;19.60;99.90
66710;DHT22;53624;0.000;0.000;2022-10-17T03:18:53;19.50;99.90
66710;DHT22;53624;0.000;0.000;2022-10-17T03:21:21;19.50;99.90
66710;DHT22;53624;0.000;0.000;2022-10-17T03:23:52;19.50;99.90
66710;DHT22;53624;0.000;0.000;2022-10-17T03:26:21;19.50;99.90
66710;DHT22;53624;0.000;0.000;2022-10-17T03:28:49;19.50;99.90
66710;DHT22;53624;0.000;0.000;2022-10-17T03:31:17;19.50;99.90
66710;DHT22;53624;0.000;0.000;2022-10-17T03:33:45;19.50;99.90
66710;DHT22;53624;0.000;0.000;2022-10-17T03:36:14;19.60;99.90
66710;DHT22;53624;0.000;0.000;2022-10-17T03:38:41;19.50;99.90
66710;DHT22;53624;0.000;0.000;2022-10-17T03:41:11;19.50;99.90
66710;DHT22;53624;0.000;0.000;2022-10-17T03:43:39;19.50;99.90
66710;DHT22;53624;0.000;0.000;2022-10-17T03:46:07;19.50;99.90
66710;DHT22;53624;0.000;0.000;2022-10-17T03:48:36;19.50;99.90
66710;DHT22;53624;0.000;0.000;2022-10-17T03:51:05;19.40;99.90
66710;DHT22;53624;0.000;0.000;2022-10-17T03:53:37;19.40;99.90
66710;DHT22;53624;0.000;0.000;2022-10-17T03:56:09;19.40;99.90
66710;DHT22;53624;0.000;0.000;2022-10-17T03:58:38;19.40;99.90
66710;DHT22;53624;0.000;0.000;2022-10-17T04:01:06;19.40;99.90
66710;DHT22;53624;0.000;0.000;2022-10-17T04:03:34;19.40;99.90
66710;DHT22;53624;0.000;0.000;2022-10-17T04:06:02;19.40;99.90
66710;DHT22;53624;0.000;0.000;2022-10-17T04:08:32;19.40;99.90
66710;DHT22;53624;0.000;0.000;2022-10-17T04:11:13;19.40;99.90
66710;DHT22;53624;0.000;0.000;2022-10-17T04:13:43;19.40;99.90
66710;DHT22;53624;0.000;0.000;2022-10-17T04:16:11;19.40;99.90
66710;DHT22;53624;0.000;0.000;2022-10-17T04:18:47;19.40;99.90
66710;DHT22;53624;0.000;0.000;2022-10-17T04:21:18;19.40;99.90
66710;DHT22;53624;0.000;0.000;2022-10-17T04:23:46;19.40;99.90
66710;DHT22;53624;0.000;0.000;2022-10-17T04:26:27;19.30;99.90
66710;DHT22;53624;0.000;0.000;2022-10-17T04:28:56;19.30;99.90
66710;DHT22;53624;0.000;0.000;2022-10-17T04:31:23;19.30;99.90
66710;DHT22;53624;0.000;0.000;2022-10-17T04:34:12;19.30;99.90
66710;DHT22;53624;0.000;0.000;2022-10-17T04:36:40;19.30;99.90
66710;DHT22;53624;0.000;0.000;2022-10-17T04:39:08;19.30;99.90
66710;DHT22;53624;0.000;0.000;2022-10-17T04:41:35;19.30;99.90
66710;DHT22;53624;0.000;0.000;2022-10-17T04:44:05;19.30;99.90
66710;DHT22;53624;0.000;0.000;2022-10-17T04:46:36;19.30;99.90
66710;DHT22;53624;0.000;0.000;2022-10-17T04:49:05;19.30;99.90
66710;DHT22;53624;0.000;0.000;2022-10-17T04:51:32;19.30;99.90
66710;DHT22;53624;0.000;0.000;2022-10-17T04:54:36;19.30;99.90
66710;DHT22;53624;0.000;0.000;2022-10-17T04:57:08;19.30;99.90
66710;DHT22;53624;0.000;0.000;2022-10-17T04:59:39;19.30;99.90
66710;DHT22;53624;0.000;0.000;2022-10-17T05:02:27;19.30;99.90
66710;DHT22;53624;0.000;0.000;2022-10-17T05:04:55;19.30;99.90
66710;DHT22;53624;0.000;0.000;2022-10-17T05:07:23;19.30;99.90
66710;DHT22;53624;0.000;0.000;2022-10-17T05:10:02;19.30;99.90
66710;DHT22;53624;0.000;0.000;2022-10-17T05:12:31;19.30;99.90
66710;DHT22;53624;0.000;0.000;2022-10-17T05:15:00;19.30;99.90
66710;DHT22;53624;0.000;0.000;2022-10-17T05:17:28;19.30;99.90
66710;DHT22;53624;0.000;0.000;2022-10-17T05:19:55;19.20;99.90
66710;DHT22;53624;0.000;0.000;2022-10-17T05:22:23;19.20;99.90
66710;DHT22;53624;0.000;0.000;2022-10-17T05:24:50;19.20;99.90
66710;DHT22;53624;0.000;0.000;2022-10-17T05:27:18;19.20;99.90
66710;DHT22;53624;0.000;0.000;2022-10-17T05:29:45;19.20;99.90
66710;DHT22;53624;0.000;0.000;2022-10-17T05:32:24;19.20;99.90
66710;DHT22;53624;0.000;0.000;2022-10-17T05:34:52;19.20;99.90
66710;DHT22;53624;0.000;0.000;2022-10-17T05:37:21;19.20;99.90
66710;DHT22;53624;0.000;0.000;2022-10-17T05:39:51;19.20;99.90
66710;DHT22;53624;0.000;0.000;2022-10-17T05:42:19;19.20;99.90
66710;DHT22;53624;0.000;0.000;2022-10-17T05:44:47;19.10;99.90
66710;DHT22;53624;0.000;0.000;2022-10-17T05:47:17;19.10;99.90
66710;DHT22;53624;0.000;0.000;2022-10-17T05:49:46;19.10;99.90
66710;DHT22;53624;0.000;0.000;2022-10-17T05:52:13;19.10;99.90
66710;DHT22;53624;0.000;0.000;2022-10-17T05:55:01;19.10;99.90
66710;DHT22;53624;0.000;0.000;2022-10-17T05:57:28;19.10;99.90
66710;DHT22;53624;0.000;0.000;2022-10-17T05:59:56;19.10;99.90
66710;DHT22;53624;0.000;0.000;2022-10-17T06:02:24;19.10;99.90
66710;DHT22;53624;0.000;0.000;2022-10-17T06:04:53;19.10;99.90
66710;DHT22;53624;0.000;0.000;2022-10-17T06:07:22;19.10;99.90
66710;DHT22;53624;0.000;0.000;2022-10-17T06:09:50;19.10;99.90
66710;DHT22;53624;0.000;0.000;2022-10-17T06:12:17;19.10;99.90
66710;DHT22;53624;0.000;0.000;2022-10-17T06:14:45;19.10;99.90
66710;DHT22;53624;0.000;0.000;2022-10-17T06:17:14;19.10;99.90
66710;DHT22;53624;0.000;0.000;2022-10-17T06:19:43;19.10;99.90
66710;DHT22;53624;0.000;0.000;2022-10-17T06:22:13;19.10;99.90
66710;DHT22;53624;0.000;0.000;2022-10-17T06:24:41;19.10;99.90
66710;DHT22;53624;0.000;0.000;2022-10-17T06:27:08;19.10;99.90
66710;DHT22;53624;0.000;0.000;2022-10-17T06:29:36;19.10;99.90
66710;DHT22;53624;0.000;0.000;2022-10-17T06:32:03;19.10;99.90
66710;DHT22;53624;0.000;0.000;2022-10-17T06:34:31;19.10;99.90
66710;DHT22;53624;0.000;0.000;2022-10-17T06:36:59;19.10;99.90
66710;DHT22;53624;0.000;0.000;2022-10-17T06:39:29;19.10;99.90
66710;DHT22;53624;0.000;0.000;2022-10-17T06:42:04;19.10;99.90
66710;DHT22;53624;0.000;0.000;2022-10-17T06:44:58;19.10;99.90
66710;DHT22;53624;0.000;0.000;2022-10-17T06:48:00;19.10;99.90
66710;DHT22;53624;0.000;0.000;2022-10-17T06:50:51;19.20;99.90
66710;DHT22;53624;0.000;0.000;2022-10-17T06:53:26;19.20;99.90
66710;DHT22;53624;0.000;0.000;2022-10-17T06:56:21;19.20;99.90
66710;DHT22;53624;0.000;0.000;2022-10-17T06:58:57;19.20;99.90
66710;DHT22;53624;0.000;0.000;2022-10-17T07:01:30;19.20;99.90
66710;DHT22;53624;0.000;0.000;2022-10-17T07:04:00;19.20;99.90
66710;DHT22;53624;0.000;0.000;2022-10-17T07:06:29;19.20;99.90
66710;DHT22;53624;0.000;0.000;2022-10-17T07:09:00;19.20;99.90
66710;DHT22;53624;0.000;0.000;2022-10-17T07:11:29;19.20;99.90
66710;DHT22;53624;0.000;0.000;2022-10-17T07:13:57;19.20;99.90
66710;DHT22;53624;0.000;0.000;2022-10-17T07:16:24;19.30;99.90
66710;DHT22;53624;0.000;0.000;2022-10-17T07:19:07;19.30;99.90
66710;DHT22;53624;0.000;0.000;2022-10-17T07:21:37;19.30;99.90
66710;DHT22;53624;0.000;0.000;2022-10-17T07:24:04;19.30;99.90
66710;DHT22;53624;0.000;0.000;2022-10-17T07:26:34;19.30;99.90
66710;DHT22;53624;0.000;0.000;2022-10-17T07:29:01;19.30;99.90
66710;DHT22;53624;0.000;0.000;2022-10-17T07:31:36;19.30;99.90
66710;DHT22;53624;0.000;0.000;2022-10-17T07:34:04;19.40;99.90
66710;DHT22;53624;0.000;0.000;2022-10-17T07:36:31;19.40;99.90
66710;DHT22;53624;0.000;0.000;2022-10-17T07:39:02;19.40;99.90
66710;DHT22;53624;0.000;0.000;2022-10-17T07:41:30;19.50;99.90
66710;DHT22;53624;0.000;0.000;2022-10-17T07:44:01;19.50;99.90
66710;DHT22;53624;0.000;0.000;2022-10-17T07:46:33;19.60;99.90
66710;DHT22;53624;0.000;0.000;2022-10-17T07:49:01;19.70;99.90
66710;DHT22;53624;0.000;0.000;2022-10-17T07:51:29;19.70;99.90
66710;DHT22;53624;0.000;0.000;2022-10-17T07:53:56;19.80;99.90
66710;DHT22;53624;0.000;0.000;2022-10-17T07:56:24;19.80;99.90
66710;DHT22;53624;0.000;0.000;2022-10-17T07:58:51;19.90;99.90
66710;DHT22;53624;0.000;0.000;2022-10-17T08:01:20;20.00;99.90
66710;DHT22;53624;0.000;0.000;2022-10-17T08:03:48;20.00;99.90
66710;DHT22;53624;0.000;0.000;2022-10-17T08:06:16;20.10;99.90
66710;DHT22;53624;0.000;0.000;2022-10-17T08:08:44;20.40;99.90
66710;DHT22;53624;0.000;0.000;2022-10-17T08:11:13;20.70;99.90
66710;DHT22;53624;0.000;0.000;2022-10-17T08:13:40;21.20;99.90
66710;DHT22;53624;0.000;0.000;2022-10-17T08:16:09;21.30;99.90
66710;DHT22;53624;0.000;0.000;2022-10-17T08:18:38;21.40;99.90
66710;DHT22;53624;0.000;0.000;2022-10-17T08:21:06;21.80;99.50
66710;DHT22;53624;0.000;0.000;2022-10-17T08:23:33;22.00;98.80
66710;DHT22;53624;0.000;0.000;2022-10-17T08:26:02;22.20;98.70
66710;DHT22;53624;0.000;0.000;2022-10-17T08:28:29;22.20;98.50
66710;DHT22;53624;0.000;0.000;2022-10-17T08:31:04;22.10;98.60
66710;DHT22;53624;0.000;0.000;2022-10-17T08:33:31;21.90;98.80
66710;DHT22;53624;0.000;0.000;2022-10-17T08:36:00;21.90;99.10
66710;DHT22;53624;0.000;0.000;2022-10-17T08:38:29;21.80;99.30
66710;DHT22;53624;0.000;0.000;2022-10-17T08:40:56;21.80;99.30
66710;DHT22;53624;0.000;0.000;2022-10-17T08:43:39;21.90;99.30
66710;DHT22;53624;0.000;0.000;2022-10-17T08:46:09;22.00;99.30
66710;DHT22;53624;0.000;0.000;2022-10-17T08:48:37;22.10;99.10
66710;DHT22;53624;0.000;0.000;2022-10-17T08:51:09;22.20;98.90
66710;DHT22;53624;0.000;0.000;2022-10-17T08:53:38;22.30;98.80
66710;DHT22;53624;0.000;0.000;2022-10-17T08:56:12;22.40;98.60
66710;DHT22;53624;0.000;0.000;2022-10-17T08:58:40;22.50;98.40
66710;DHT22;53624;0.000;0.000;2022-10-17T09:01:08;22.70;98.20
66710;DHT22;53624;0.000;0.000;2022-10-17T09:03:50;22.80;98.10
66710;DHT22;53624;0.000;0.000;2022-10-17T09:06:20;22.90;98.00
66710;DHT22;53624;0.000;0.000;2022-10-17T09:08:58;23.00;97.70
66710;DHT22;53624;0.000;0.000;2022-10-17T09:11:33;23.10;97.60
66710;DHT22;53624;0.000;0.000;2022-10-17T09:14:05;23.30;97.40
66710;DHT22;53624;0.000;0.000;2022-10-17T09:16:39;23.40;97.20
66710;DHT22;53624;0.000;0.000;2022-10-17T09:19:11;23.50;97.00
66710;DHT22;53624;0.000;0.000;2022-10-17T09:21:46;23.60;96.90
66710;DHT22;53624;0.000;0.000;2022-10-17T09:24:17;23.70;96.80
66710;DHT22;53624;0.000;0.000;2022-10-17T09:26:45;23.80;96.60
66710;DHT22;53624;0.000;0.000;2022-10-17T09:29:17;23.90;96.60
66710;DHT22;53624;0.000;0.000;2022-10-17T09:31:46;24.00;96.50
66710;DHT22;53624;0.000;0.000;2022-10-17T09:34:15;24.00;96.40
66710;DHT22;53624;0.000;0.000;2022-10-17T09:36:44;24.10;96.40
66710;DHT22;53624;0.000;0.000;2022-10-17T09:39:12;24.10;96.30
66710;DHT22;53624;0.000;0.000;2022-10-17T09:41:40;24.20;96.40
66710;DHT22;53624;0.000;0.000;2022-10-17T09:44:14;24.20;96.30
66710;DHT22;53624;0.000;0.000;2022-10-17T09:46:42;24.20;96.30
66710;DHT22;53624;0.000;0.000;2022-10-17T09:49:13;24.30;96.30
66710;DHT22;53624;0.000;0.000;2022-10-17T09:51:44;24.30;96.20
66710;DHT22;53624;0.000;0.000;2022-10-17T09:54:15;24.30;96.00
66710;DHT22;53624;0.000;0.000;2022-10-17T09:56:57;24.30;95.70
66710;DHT22;53624;0.000;0.000;2022-10-17T09:59:34;24.40;95.70
66710;DHT22;53624;0.000;0.000;2022-10-17T10:02:13;24.50;95.50
66710;DHT22;53624;0.000;0.000;2022-10-17T10:07:29;24.50;95.50
66710;DHT22;53624;0.000;0.000;2022-10-17T10:09:58;24.50;95.20
66710;DHT22;53624;0.000;0.000;2022-10-17T10:12:28;24.60;95.20
66710;DHT22;53624;0.000;0.000;2022-10-17T10:14:56;24.60;95.10
66710;DHT22;53624;0.000;0.000;2022-10-17T10:17:34;24.70;95.00
66710;DHT22;53624;0.000;0.000;2022-10-17T10:20:02;24.80;95.00
66710;DHT22;53624;0.000;0.000;2022-10-17T10:22:31;24.80;94.90
66710;DHT22;53624;0.000;0.000;2022-10-17T10:25:06;24.80;94.80
66710;DHT22;53624;0.000;0.000;2022-10-17T10:27:33;24.80;94.80
66710;DHT22;53624;0.000;0.000;2022-10-17T10:30:01;24.80;94.60
66710;DHT22;53624;0.000;0.000;2022-10-17T10:32:30;25.00;94.40
66710;DHT22;53624;0.000;0.000;2022-10-17T10:34:58;25.30;94.70
66710;DHT22;53624;0.000;0.000;2022-10-17T10:37:27;25.80;94.00
66710;DHT22;53624;0.000;0.000;2022-10-17T10:39:57;26.40;93.10
66710;DHT22;53624;0.000;0.000;2022-10-17T10:42:26;26.90;92.30
66710;DHT22;53624;0.000;0.000;2022-10-17T10:44:56;27.30;91.70
66710;DHT22;53624;0.000;0.000;2022-10-17T10:47:24;27.40;91.50
66710;DHT22;53624;0.000;0.000;2022-10-17T10:50:05;27.10;91.70
66710;DHT22;53624;0.000;0.000;2022-10-17T10:52:36;26.90;92.00
66710;DHT22;53624;0.000;0.000;2022-10-17T10:55:13;26.70;92.50
66710;DHT22;53624;0.000;0.000;2022-10-17T10:57:41;26.50;92.80
66710;DHT22;53624;0.000;0.000;2022-10-17T11:00:11;26.40;93.00
66710;DHT22;53624;0.000;0.000;2022-10-17T11:02:43;26.40;93.10
66710;DHT22;53624;0.000;0.000;2022-10-17T11:05:14;26.50;93.20
66710;DHT22;53624;0.000;0.000;2022-10-17T11:07:43;26.80;93.20
66710;DHT22;53624;0.000;0.000;2022-10-17T11:10:16;27.40;92.50
66710;DHT22;53624;0.000;0.000;2022-10-17T11:12:46;28.10;91.30
66710;DHT22;53624;0.000;0.000;2022-10-17T11:15:17;28.60;90.50
66710;DHT22;53624;0.000;0.000;2022-10-17T11:17:49;29.10;90.20
66710;DHT22;53624;0.000;0.000;2022-10-17T11:20:18;29.30;89.60
66710;DHT22;53624;0.000;0.000;2022-10-17T11:22:48;29.40;89.70
66710;DHT22;53624;0.000;0.000;2022-10-17T11:25:30;29.10;90.00
66710;DHT22;53624;0.000;0.000;2022-10-17T11:27:57;28.60;90.80
66710;DHT22;53624;0.000;0.000;2022-10-17T11:30:26;28.30;91.40
66710;DHT22;53624;0.000;0.000;2022-10-17T11:32:55;28.50;91.60
66710;DHT22;53624;0.000;0.000;2022-10-17T11:35:25;29.00;91.20
66710;DHT22;53624;0.000;0.000;2022-10-17T11:37:56;29.50;90.60
66710;DHT22;53624;0.000;0.000;2022-10-17T11:40:27;29.80;90.10
66710;DHT22;53624;0.000;0.000;2022-10-17T11:42:59;30.00;89.70
66710;DHT22;53624;0.000;0.000;2022-10-17T11:45:28;29.90;89.90
66710;DHT22;53624;0.000;0.000;2022-10-17T11:47:58;29.40;90.70
66710;DHT22;53624;0.000;0.000;2022-10-17T11:50:29;29.10;91.00
66710;DHT22;53624;0.000;0.000;2022-10-17T11:52:58;29.00;91.40
66710;DHT22;53624;0.000;0.000;2022-10-17T11:55:27;29.10;91.20
66710;DHT22;53624;0.000;0.000;2022-10-17T11:58:00;29.10;91.30
66710;DHT22;53624;0.000;0.000;2022-10-17T12:00:35;28.90;91.60
66710;DHT22;53624;0.000;0.000;2022-10-17T12:03:09;28.70;91.80
66710;DHT22;53624;0.000;0.000;2022-10-17T12:05:38;28.80;91.70
66710;DHT22;53624;0.000;0.000;2022-10-17T12:08:08;28.90;91.80
66710;DHT22;53624;0.000;0.000;2022-10-17T12:10:42;29.00;91.70
66710;DHT22;53624;0.000;0.000;2022-10-17T12:16:35;28.80;92.20
66710;DHT22;53624;0.000;0.000;2022-10-17T12:18:46;29.00;91.90
66710;DHT22;53624;0.000;0.000;2022-10-17T12:21:14;29.30;91.50
66710;DHT22;53624;0.000;0.000;2022-10-17T12:23:42;29.30;91.60
66710;DHT22;53624;0.000;0.000;2022-10-17T12:26:24;29.40;91.50
66710;DHT22;53624;0.000;0.000;2022-10-17T12:28:52;29.40;91.70
66710;DHT22;53624;0.000;0.000;2022-10-17T12:31:22;29.40;91.70
66710;DHT22;53624;0.000;0.000;2022-10-17T12:33:50;29.30;91.90
66710;DHT22;53624;0.000;0.000;2022-10-17T12:41:52;28.40;93.30
66710;DHT22;53624;0.000;0.000;2022-10-17T12:44:34;28.20;93.60
66710;DHT22;53624;0.000;0.000;2022-10-17T12:49:45;28.00;94.20
66710;DHT22;53624;0.000;0.000;2022-10-17T12:52:17;27.80;94.40
66710;DHT22;53624;0.000;0.000;2022-10-17T12:54:46;27.80;94.60
66710;DHT22;53624;0.000;0.000;2022-10-17T12:57:18;27.80;94.60
66710;DHT22;53624;0.000;0.000;2022-10-17T12:59:46;27.90;94.50
66710;DHT22;53624;0.000;0.000;2022-10-17T13:02:16;28.00;94.50
66710;DHT22;53624;0.000;0.000;2022-10-17T13:04:45;27.90;94.60
66710;DHT22;53624;0.000;0.000;2022-10-17T13:07:15;27.80;94.70
66710;DHT22;53624;0.000;0.000;2022-10-17T13:09:44;27.60;95.00
66710;DHT22;53624;0.000;0.000;2022-10-17T13:12:12;27.70;95.00
66710;DHT22;53624;0.000;0.000;2022-10-17T13:14:40;27.60;95.00
66710;DHT22;53624;0.000;0.000;2022-10-17T13:17:19;27.50;95.10
66710;DHT22;53624;0.000;0.000;2022-10-17T13:19:48;27.50;95.20
66710;DHT22;53624;0.000;0.000;2022-10-17T13:22:16;27.40;95.30
66710;DHT22;53624;0.000;0.000;2022-10-17T13:24:44;27.40;95.30
66710;DHT22;53624;0.000;0.000;2022-10-17T13:27:22;27.30;95.40
66710;DHT22;53624;0.000;0.000;2022-10-17T13:29:50;27.30;95.60
66710;DHT22;53624;0.000;0.000;2022-10-17T13:32:17;27.10;95.70
66710;DHT22;53624;0.000;0.000;2022-10-17T13:34:45;27.00;95.90
66710;DHT22;53624;0.000;0.000;2022-10-17T13:37:13;26.90;96.00
66710;DHT22;53624;0.000;0.000;2022-10-17T13:39:42;26.80;96.10
66710;DHT22;53624;0.000;0.000;2022-10-17T13:42:16;26.80;96.30
66710;DHT22;53624;0.000;0.000;2022-10-17T13:44:44;26.70;96.50
66710;DHT22;53624;0.000;0.000;2022-10-17T13:47:19;26.60;96.50
66710;DHT22;53624;0.000;0.000;2022-10-17T13:49:47;26.50;96.60
66710;DHT22;53624;0.000;0.000;2022-10-17T13:52:17;26.40;96.70
66710;DHT22;53624;0.000;0.000;2022-10-17T13:54:46;26.40;96.80
66710;DHT22;53624;0.000;0.000;2022-10-17T13:57:18;26.30;96.90
66710;DHT22;53624;0.000;0.000;2022-10-17T13:59:46;26.20;97.00
66710;DHT22;53624;0.000;0.000;2022-10-17T14:02:16;26.20;97.20
66710;DHT22;53624;0.000;0.000;2022-10-17T14:04:43;26.10;97.20
66710;DHT22;53624;0.000;0.000;2022-10-17T14:07:20;26.00;97.10
66710;DHT22;53624;0.000;0.000;2022-10-17T14:09:49;26.00;97.40
66710;DHT22;53624;0.000;0.000;2022-10-17T14:12:17;25.90;97.50
66710;DHT22;53624;0.000;0.000;2022-10-17T14:14:46;25.90;97.60
66710;DHT22;53624;0.000;0.000;2022-10-17T14:17:14;25.80;97.30
66710;DHT22;53624;0.000;0.000;2022-10-17T14:19:49;25.70;97.80
66710;DHT22;53624;0.000;0.000;2022-10-17T14:22:24;25.70;97.90
66710;DHT22;53624;0.000;0.000;2022-10-17T14:24:52;25.60;98.00
66710;DHT22;53624;0.000;0.000;2022-10-17T14:27:27;25.50;98.00
66710;DHT22;53624;0.000;0.000;2022-10-17T14:29:55;25.50;98.10
66710;DHT22;53624;0.000;0.000;2022-10-17T14:32:25;25.40;98.20
66710;DHT22;53624;0.000;0.000;2022-10-17T14:34:54;25.40;98.40
66710;DHT22;53624;0.000;0.000;2022-10-17T14:37:27;25.30;98.40
66710;DHT22;53624;0.000;0.000;2022-10-17T14:39:57;25.30;98.50
66710;DHT22;53624;0.000;0.000;2022-10-17T14:42:25;25.20;98.60
66710;DHT22;53624;0.000;0.000;2022-10-17T14:44:53;25.20;98.70
66710;DHT22;53624;0.000;0.000;2022-10-17T14:47:22;25.10;98.70
66710;DHT22;53624;0.000;0.000;2022-10-17T14:50:00;25.10;98.90
66710;DHT22;53624;0.000;0.000;2022-10-17T14:52:30;25.00;98.90
66710;DHT22;53624;0.000;0.000;2022-10-17T14:54:59;24.90;99.00
66710;DHT22;53624;0.000;0.000;2022-10-17T14:57:40;24.90;99.10
66710;DHT22;53624;0.000;0.000;2022-10-17T15:00:11;24.80;99.20
66710;DHT22;53624;0.000;0.000;2022-10-17T15:02:39;24.80;99.30
66710;DHT22;53624;0.000;0.000;2022-10-17T15:05:07;24.80;99.30
66710;DHT22;53624;0.000;0.000;2022-10-17T15:07:36;24.70;99.40
66710;DHT22;53624;0.000;0.000;2022-10-17T15:10:03;24.70;99.40
66710;DHT22;53624;0.000;0.000;2022-10-17T15:12:31;24.60;99.50
66710;DHT22;53624;0.000;0.000;2022-10-17T15:14:59;24.60;99.60
66710;DHT22;53624;0.000;0.000;2022-10-17T15:17:26;24.60;99.70
66710;DHT22;53624;0.000;0.000;2022-10-17T15:19:54;24.50;99.60
66710;DHT22;53624;0.000;0.000;2022-10-17T15:22:22;24.20;97.10
66710;DHT22;53624;0.000;0.000;2022-10-17T15:24:51;23.90;96.70
66710;DHT22;53624;0.000;0.000;2022-10-17T15:27:19;23.70;96.80
66710;DHT22;53624;0.000;0.000;2022-10-17T15:29:47;23.60;97.50
66710;DHT22;53624;0.000;0.000;2022-10-17T15:32:15;23.60;97.40
66710;DHT22;53624;0.000;0.000;2022-10-17T15:34:42;23.50;97.50
66710;DHT22;53624;0.000;0.000;2022-10-17T15:37:14;23.40;97.50
66710;DHT22;53624;0.000;0.000;2022-10-17T15:39:42;23.40;97.60
66710;DHT22;53624;0.000;0.000;2022-10-17T15:42:12;23.30;97.70
66710;DHT22;53624;0.000;0.000;2022-10-17T15:44:39;23.30;97.70
66710;DHT22;53624;0.000;0.000;2022-10-17T15:47:10;23.20;97.80
66710;DHT22;53624;0.000;0.000;2022-10-17T15:49:44;23.20;97.90
66710;DHT22;53624;0.000;0.000;2022-10-17T15:52:12;23.10;97.90
66710;DHT22;53624;0.000;0.000;2022-10-17T15:54:39;23.10;98.00
66710;DHT22;53624;0.000;0.000;2022-10-17T15:57:07;23.10;98.00
66710;DHT22;53624;0.000;0.000;2022-10-17T15:59:42;23.00;98.10
66710;DHT22;53624;0.000;0.000;2022-10-17T16:02:12;23.00;98.10
66710;DHT22;53624;0.000;0.000;2022-10-17T16:04:40;23.00;98.20
66710;DHT22;53624;0.000;0.000;2022-10-17T16:07:07;22.90;98.30
66710;DHT22;53624;0.000;0.000;2022-10-17T16:09:35;22.90;98.40
66710;DHT22;53624;0.000;0.000;2022-10-17T16:12:03;22.80;98.40
66710;DHT22;53624;0.000;0.000;2022-10-17T16:14:31;22.80;98.50
66710;DHT22;53624;0.000;0.000;2022-10-17T16:17:00;22.80;98.50
66710;DHT22;53624;0.000;0.000;2022-10-17T16:19:28;22.80;98.60
66710;DHT22;53624;0.000;0.000;2022-10-17T16:21:55;22.70;98.50
66710;DHT22;53624;0.000;0.000;2022-10-17T16:24:23;22.70;98.70
66710;DHT22;53624;0.000;0.000;2022-10-17T16:26:51;22.70;98.70